Time;durP1;ratioP1;P1;durP2;ratioP2;P2;SDS_P1;SDS_P2;PMS_P1;PMS_P2;Temp;Humidity;BMP_temperature;BMP_pressure;BME280_temperature;BME280_humidity;BME280_pressure;Samples;Min_cycle;Max_cycle;Signal;HPM_P1;HPM_P2
2021/10/22 00:02:23;;;;;;;5.30;1.30;;;6.90;99.90;;;;;;5073815;28;20218;-44
2021/10/22 00:04:52;;;;;;;4.43;1.10;;;6.80;99.90;;;;;;5078639;28;20196;-46
2021/10/22 00:07:19;;;;;;;6.00;1.13;;;6.90;99.90;;;;;;5079859;28;20586;-46
2021/10/22 00:09:46;;;;;;;5.73;1.20;;;6.90;99.90;;;;;;5103119;28;20386;-45
2021/10/22 00:12:13;;;;;;;6.57;1.33;;;6.90;99.90;;;;;;5089270;28;20197;-43
2021/10/22 00:14:40;;;;;;;5.47;1.83;;;6.90;99.90;;;;;;5082270;28;20206;-43
2021/10/22 00:17:06;;;;;;;5.97;1.13;;;6.90;99.90;;;;;;5076562;27;20221;-46
2021/10/22 00:19:33;;;;;;;5.43;0.97;;;6.80;99.90;;;;;;5086542;28;20221;-45
2021/10/22 00:22:01;;;;;;;3.50;1.23;;;6.90;99.90;;;;;;5088680;28;20206;-44
2021/10/22 00:24:28;;;;;;;5.13;1.40;;;6.90;99.90;;;;;;5077926;28;20477;-43
2021/10/22 00:26:54;;;;;;;8.37;1.20;;;6.90;99.90;;;;;;5084434;28;20201;-45
2021/10/22 00:29:21;;;;;;;7.87;1.10;;;6.90;99.90;;;;;;5084238;28;20201;-43
2021/10/22 00:31:47;;;;;;;4.60;1.00;;;6.90;99.90;;;;;;5085616;28;20198;-43
2021/10/22 00:34:15;;;;;;;4.70;1.27;;;6.90;99.90;;;;;;5081494;28;20705;-43
2021/10/22 00:36:42;;;;;;;8.17;1.40;;;6.90;99.90;;;;;;5092383;28;20190;-45
2021/10/22 00:39:10;;;;;;;9.67;1.37;;;6.90;99.90;;;;;;5093192;28;20224;-43
2021/10/22 00:41:38;;;;;;;8.63;1.37;;;6.90;99.90;;;;;;5086563;28;20209;-44
2021/10/22 00:44:05;;;;;;;5.73;1.10;;;6.90;99.90;;;;;;5092737;28;20226;-44
2021/10/22 00:46:33;;;;;;;7.07;1.33;;;6.90;99.90;;;;;;5089324;28;20262;-44
2021/10/22 00:49:00;;;;;;;10.23;1.50;;;6.90;99.90;;;;;;5077194;28;20203;-44
2021/10/22 00:51:29;;;;;;;7.97;1.63;;;6.90;99.90;;;;;;5082248;28;20212;-46
2021/10/22 00:53:56;;;;;;;4.83;1.07;;;6.90;99.90;;;;;;5080483;28;20222;-43
2021/10/22 00:56:24;;;;;;;7.03;1.57;;;6.90;99.90;;;;;;5083143;28;20212;-43
2021/10/22 00:58:52;;;;;;;4.80;1.30;;;6.80;99.90;;;;;;5086129;28;20255;-43
2021/10/22 01:01:18;;;;;;;6.00;1.90;;;6.80;99.90;;;;;;5081766;28;20285;-43
2021/10/22 01:03:45;;;;;;;9.63;1.90;;;6.90;99.90;;;;;;5069163;28;20248;-45
2021/10/22 01:06:12;;;;;;;9.33;1.83;;;6.80;99.90;;;;;;5081105;28;20314;-43
2021/10/22 01:08:38;;;;;;;5.83;1.10;;;6.80;99.90;;;;;;5091580;28;20560;-43
2021/10/22 01:11:05;;;;;;;5.63;1.27;;;6.80;99.90;;;;;;5074058;28;20198;-46
2021/10/22 01:13:33;;;;;;;9.90;1.40;;;6.80;99.90;;;;;;5095378;28;20318;-45
2021/10/22 01:16:01;;;;;;;11.10;1.43;;;6.80;99.90;;;;;;5072716;28;20678;-44
2021/10/22 01:18:29;;;;;;;6.70;1.10;;;6.80;99.90;;;;;;5070003;28;20209;-47
2021/10/22 01:21:00;;;;;;;6.93;1.13;;;6.80;99.90;;;;;;5092841;28;20280;-47
2021/10/22 01:23:27;;;;;;;4.07;1.30;;;6.80;99.90;;;;;;5082978;28;20222;-46
2021/10/22 01:25:54;;;;;;;7.00;1.23;;;6.80;99.90;;;;;;5085338;28;20193;-46
2021/10/22 01:28:21;;;;;;;2.47;0.70;;;6.80;99.90;;;;;;5104204;28;20198;-44
2021/10/22 01:30:48;;;;;;;4.67;1.43;;;6.80;99.90;;;;;;5092914;28;20205;-48
2021/10/22 01:33:17;;;;;;;4.67;1.17;;;6.90;99.90;;;;;;5072581;28;20275;-44
2021/10/22 01:35:44;;;;;;;4.43;1.00;;;6.80;99.90;;;;;;5084972;28;20903;-46
2021/10/22 01:38:15;;;;;;;2.17;1.03;;;6.80;99.90;;;;;;5085528;28;20689;-43
2021/10/22 01:40:42;;;;;;;6.63;1.00;;;6.90;99.90;;;;;;5079219;28;22930;-43
2021/10/22 01:43:09;;;;;;;4.73;1.17;;;6.90;99.90;;;;;;5092952;28;20217;-43
2021/10/22 01:45:35;;;;;;;6.10;1.23;;;6.80;99.90;;;;;;5079334;28;20210;-43
2021/10/22 01:48:02;;;;;;;4.00;0.80;;;6.80;99.90;;;;;;5080464;28;20202;-44
2021/10/22 01:50:30;;;;;;;9.27;1.03;;;6.80;99.90;;;;;;5081734;28;20213;-45
2021/10/22 01:52:56;;;;;;;4.00;0.97;;;6.80;99.90;;;;;;5084129;28;20213;-43
2021/10/22 01:55:24;;;;;;;4.60;0.80;;;6.80;99.90;;;;;;5089229;28;20216;-44
2021/10/22 01:57:51;;;;;;;3.27;0.80;;;6.80;99.90;;;;;;5079107;28;20205;-45
2021/10/22 02:00:18;;;;;;;9.17;1.10;;;6.90;99.90;;;;;;5083853;28;20233;-45
2021/10/22 02:02:44;;;;;;;3.23;0.63;;;6.90;99.90;;;;;;5081438;28;20220;-46
2021/10/22 02:05:11;;;;;;;6.70;0.87;;;6.90;99.90;;;;;;5071613;28;20209;-47
2021/10/22 02:07:38;;;;;;;5.97;1.03;;;6.90;99.90;;;;;;5075485;28;20201;-45
2021/10/22 02:10:05;;;;;;;3.33;0.67;;;6.90;99.90;;;;;;5084697;28;20194;-44
2021/10/22 02:12:33;;;;;;;4.80;1.13;;;6.90;99.90;;;;;;5082938;28;20235;-43
2021/10/22 02:15:00;;;;;;;4.50;1.07;;;6.90;99.90;;;;;;5090081;28;20209;-43
2021/10/22 02:17:27;;;;;;;2.97;0.43;;;6.90;99.90;;;;;;5101797;28;20654;-43
2021/10/22 02:19:53;;;;;;;5.37;0.70;;;6.90;99.90;;;;;;5076262;28;20216;-48
2021/10/22 02:22:20;;;;;;;3.67;0.63;;;6.90;99.90;;;;;;5075207;28;20205;-44
2021/10/22 02:24:46;;;;;;;4.47;0.80;;;7.00;99.90;;;;;;5074742;28;20760;-43
2021/10/22 02:27:15;;;;;;;3.37;0.60;;;7.00;99.90;;;;;;5076735;28;20239;-43
2021/10/22 02:29:43;;;;;;;2.77;0.60;;;7.00;99.90;;;;;;5086637;28;20197;-45
2021/10/22 02:32:09;;;;;;;2.87;0.60;;;7.00;99.90;;;;;;5074152;28;20214;-43
2021/10/22 02:34:36;;;;;;;2.13;0.60;;;7.00;99.90;;;;;;5084777;28;20797;-47
2021/10/22 02:37:03;;;;;;;4.27;0.80;;;7.00;99.90;;;;;;5084254;28;20198;-45
2021/10/22 02:39:33;;;;;;;4.80;0.73;;;7.00;99.90;;;;;;5089065;28;20228;-44
2021/10/22 02:42:00;;;;;;;3.20;0.70;;;7.00;99.90;;;;;;5081519;28;20280;-47
2021/10/22 02:44:28;;;;;;;5.03;0.60;;;7.00;99.90;;;;;;5077517;28;20234;-45
2021/10/22 02:47:01;;;;;;;3.23;0.90;;;7.00;99.90;;;;;;5076866;28;20190;-44
2021/10/22 02:49:31;;;;;;;2.73;0.90;;;7.00;99.90;;;;;;5077214;28;20217;-43
2021/10/22 02:51:58;;;;;;;6.60;0.70;;;7.00;99.90;;;;;;5070309;28;20220;-44
2021/10/22 02:54:25;;;;;;;1.97;0.63;;;7.00;99.90;;;;;;5080117;28;20843;-43
2021/10/22 02:56:52;;;;;;;5.50;0.83;;;7.10;99.90;;;;;;5081557;28;20201;-44
2021/10/22 02:59:19;;;;;;;2.33;0.80;;;7.10;99.90;;;;;;5087485;28;20218;-43
2021/10/22 03:01:46;;;;;;;3.50;0.43;;;7.10;99.90;;;;;;5099092;28;20197;-44
2021/10/22 03:04:14;;;;;;;5.50;0.80;;;7.10;99.90;;;;;;5078940;28;20222;-44
2021/10/22 03:06:40;;;;;;;3.77;1.10;;;7.10;99.90;;;;;;5069600;28;20202;-44
2021/10/22 03:09:07;;;;;;;3.80;1.30;;;7.10;99.90;;;;;;5083834;28;20659;-43
2021/10/22 03:11:33;;;;;;;2.10;0.70;;;7.10;99.90;;;;;;5082232;28;20208;-48
2021/10/22 03:14:00;;;;;;;5.73;0.70;;;7.10;99.90;;;;;;5100791;28;20228;-43
2021/10/22 03:16:26;;;;;;;3.63;0.60;;;7.10;99.90;;;;;;5067895;28;20570;-47
2021/10/22 03:18:53;;;;;;;1.13;0.57;;;7.10;99.90;;;;;;5082822;28;20193;-44
2021/10/22 03:21:22;;;;;;;3.47;1.00;;;7.10;99.90;;;;;;5069230;28;20552;-44
2021/10/22 03:23:54;;;;;;;5.17;1.00;;;7.10;99.90;;;;;;5079908;28;20603;-43
2021/10/22 03:26:21;;;;;;;4.57;1.37;;;7.10;99.90;;;;;;5075984;28;20212;-45
2021/10/22 03:28:47;;;;;;;5.33;1.17;;;7.10;99.90;;;;;;5082955;28;20200;-43
2021/10/22 03:31:14;;;;;;;4.30;1.43;;;7.10;99.90;;;;;;5088766;28;20607;-45
2021/10/22 03:33:41;;;;;;;11.93;2.70;;;7.10;99.90;;;;;;5078272;28;20210;-46
2021/10/22 03:36:08;;;;;;;10.33;2.43;;;7.10;99.90;;;;;;5088889;28;20611;-45
2021/10/22 03:38:36;;;;;;;2.03;0.90;;;7.10;99.90;;;;;;5072477;28;20204;-44
2021/10/22 03:41:03;;;;;;;3.63;1.50;;;7.10;99.90;;;;;;5083271;28;20217;-47
2021/10/22 03:43:30;;;;;;;9.50;1.40;;;7.10;99.90;;;;;;5089698;28;20220;-44
2021/10/22 03:45:57;;;;;;;4.07;0.80;;;7.00;99.90;;;;;;5091164;28;20201;-46
2021/10/22 03:48:24;;;;;;;6.53;1.43;;;7.00;99.90;;;;;;5100055;28;20207;-45
2021/10/22 03:50:50;;;;;;;8.87;1.77;;;7.00;99.90;;;;;;5102926;28;20224;-44
2021/10/22 03:53:17;;;;;;;7.40;1.40;;;7.10;99.90;;;;;;5067813;28;20228;-44
2021/10/22 03:55:45;;;;;;;6.13;0.90;;;7.10;99.90;;;;;;5074719;28;20186;-46
2021/10/22 03:58:12;;;;;;;12.87;1.80;;;7.10;99.90;;;;;;5074053;28;20201;-45
2021/10/22 04:00:38;;;;;;;4.57;1.00;;;7.10;99.90;;;;;;5077977;28;21989;-43
2021/10/22 04:03:05;;;;;;;6.57;1.30;;;7.10;99.90;;;;;;5087916;28;20221;-44
2021/10/22 04:05:32;;;;;;;9.57;1.70;;;7.10;99.90;;;;;;5078834;28;20206;-45
2021/10/22 04:07:59;;;;;;;9.83;2.30;;;7.10;99.90;;;;;;5075251;28;21553;-43
2021/10/22 04:10:26;;;;;;;9.10;1.67;;;7.00;99.90;;;;;;5086216;28;20190;-43
2021/10/22 04:12:54;;;;;;;11.57;1.20;;;7.00;99.90;;;;;;5088539;28;20209;-44
2021/10/22 04:15:21;;;;;;;8.57;1.60;;;7.00;99.90;;;;;;5079147;28;20198;-44
2021/10/22 04:17:47;;;;;;;2.87;1.40;;;7.10;99.90;;;;;;5076826;28;20206;-46
2021/10/22 04:20:14;;;;;;;3.07;1.33;;;7.10;99.90;;;;;;5076509;28;20221;-43
2021/10/22 04:22:41;;;;;;;4.97;1.60;;;7.10;99.90;;;;;;5082946;28;20291;-47
2021/10/22 04:25:08;;;;;;;9.37;2.50;;;7.10;99.90;;;;;;5076235;28;20202;-44
2021/10/22 04:27:35;;;;;;;4.27;1.60;;;7.10;99.90;;;;;;5078752;28;20213;-43
2021/10/22 04:30:06;;;;;;;7.77;1.60;;;7.10;99.90;;;;;;5079616;28;20196;-45
2021/10/22 04:32:32;;;;;;;10.83;2.07;;;7.10;99.90;;;;;;5084971;28;20295;-43
2021/10/22 04:34:59;;;;;;;5.70;1.60;;;7.10;99.90;;;;;;5093522;28;20201;-43
2021/10/22 04:37:31;;;;;;;4.13;1.30;;;7.20;99.90;;;;;;5081669;28;20205;-45
2021/10/22 04:42:46;;;;;;;10.33;2.10;;;7.20;99.90;;;;;;5089022;28;20410;-43
2021/10/22 04:45:14;;;;;;;6.23;1.80;;;7.20;99.90;;;;;;5101841;28;20211;-44
2021/10/22 04:47:41;;;;;;;9.47;1.30;;;7.20;99.90;;;;;;5077152;28;20673;-44
2021/10/22 04:50:10;;;;;;;6.70;1.30;;;7.30;99.90;;;;;;5086112;28;20201;-43
2021/10/22 04:52:38;;;;;;;5.10;1.33;;;7.30;99.90;;;;;;5089176;28;20221;-43
2021/10/22 04:55:06;;;;;;;8.07;1.87;;;7.30;99.90;;;;;;5075258;28;20206;-43
2021/10/22 04:57:33;;;;;;;8.97;1.60;;;7.40;99.90;;;;;;5081411;28;20253;-44
2021/10/22 04:59:59;;;;;;;8.40;1.53;;;7.40;99.90;;;;;;5079855;28;20214;-45
2021/10/22 05:02:27;;;;;;;6.83;1.73;;;7.40;99.90;;;;;;5085963;28;20238;-46
2021/10/22 05:04:54;;;;;;;3.60;1.17;;;7.40;99.90;;;;;;5089713;28;20685;-45
2021/10/22 05:07:20;;;;;;;8.13;1.87;;;7.40;99.90;;;;;;5085141;28;20190;-43
2021/10/22 05:09:47;;;;;;;5.83;1.30;;;7.40;99.90;;;;;;5071399;28;20202;-45
2021/10/22 05:12:13;;;;;;;9.47;1.60;;;7.30;99.90;;;;;;5080314;28;20202;-43
2021/10/22 05:14:40;;;;;;;3.80;1.30;;;7.30;99.90;;;;;;5098041;28;20216;-46
2021/10/22 05:17:07;;;;;;;8.27;1.30;;;7.30;99.90;;;;;;5082143;28;20727;-45
2021/10/22 05:19:34;;;;;;;9.83;1.67;;;7.30;99.90;;;;;;5080809;28;20202;-43
2021/10/22 05:22:01;;;;;;;9.23;2.00;;;7.30;99.90;;;;;;5092456;28;20232;-43
2021/10/22 05:24:28;;;;;;;8.30;1.73;;;7.30;99.90;;;;;;5097619;28;20216;-43
2021/10/22 05:26:54;;;;;;;6.63;1.90;;;7.30;99.90;;;;;;5070335;28;20202;-43
2021/10/22 05:29:21;;;;;;;8.43;1.50;;;7.30;99.90;;;;;;5090297;28;20197;-43
2021/10/22 05:31:48;;;;;;;6.60;1.77;;;7.30;99.90;;;;;;5085188;28;20194;-46
2021/10/22 05:34:14;;;;;;;8.27;1.80;;;7.30;99.90;;;;;;5079502;28;20340;-44
2021/10/22 05:36:42;;;;;;;14.70;3.10;;;7.30;99.90;;;;;;5094033;28;20206;-44
2021/10/22 05:39:09;;;;;;;14.90;2.20;;;7.40;99.90;;;;;;5083249;28;20209;-43
2021/10/22 05:41:36;;;;;;;10.10;1.83;;;7.40;99.90;;;;;;5068634;28;20708;-44
2021/10/22 05:44:02;;;;;;;3.87;1.60;;;7.40;99.90;;;;;;5078671;28;20232;-46
2021/10/22 05:46:29;;;;;;;9.60;2.17;;;7.30;99.90;;;;;;5082766;28;20555;-44
2021/10/22 05:48:56;;;;;;;12.60;2.00;;;7.30;99.90;;;;;;5083907;28;20198;-43
2021/10/22 05:51:23;;;;;;;5.53;2.07;;;7.30;99.90;;;;;;5077003;28;20206;-42
2021/10/22 05:53:51;;;;;;;8.33;2.00;;;7.30;99.90;;;;;;5083085;28;20225;-43
2021/10/22 05:56:18;;;;;;;8.37;1.43;;;7.30;99.90;;;;;;5073810;28;20280;-44
2021/10/22 05:58:45;;;;;;;10.63;2.10;;;7.40;99.90;;;;;;5069802;28;20201;-42
2021/10/22 06:01:12;;;;;;;6.53;1.40;;;7.40;99.90;;;;;;5080046;28;20218;-45
2021/10/22 06:03:38;;;;;;;9.80;2.40;;;7.40;99.90;;;;;;5079522;28;20312;-44
2021/10/22 06:06:06;;;;;;;6.70;1.90;;;7.30;99.90;;;;;;5072769;28;20204;-43
2021/10/22 06:08:32;;;;;;;9.53;1.60;;;7.30;99.90;;;;;;5083630;28;20209;-42
2021/10/22 06:11:01;;;;;;;8.23;1.80;;;7.40;99.90;;;;;;5081990;28;20205;-43
2021/10/22 06:13:28;;;;;;;8.57;1.50;;;7.30;99.90;;;;;;5076804;28;20217;-43
2021/10/22 06:15:54;;;;;;;4.93;1.60;;;7.40;99.90;;;;;;5064595;28;20213;-44
2021/10/22 06:18:21;;;;;;;7.80;1.43;;;7.40;99.90;;;;;;5076419;28;20956;-42
2021/10/22 06:20:51;;;;;;;7.13;2.83;;;7.40;99.90;;;;;;5074434;28;20241;-45
2021/10/22 06:26:03;;;;;;;11.27;2.30;;;7.50;99.90;;;;;;5076586;28;20193;-44
2021/10/22 06:28:30;;;;;;;7.63;1.97;;;7.50;99.90;;;;;;5066468;28;20220;-43
2021/10/22 06:30:58;;;;;;;10.43;2.10;;;7.60;99.90;;;;;;5077277;28;20191;-44
2021/10/22 06:33:25;;;;;;;6.83;2.33;;;7.60;99.90;;;;;;5077020;28;20293;-42
2021/10/22 06:35:54;;;;;;;8.73;2.10;;;7.70;99.90;;;;;;5070946;28;20959;-43
2021/10/22 06:38:21;;;;;;;8.53;1.60;;;7.70;99.90;;;;;;5075314;28;20206;-43
2021/10/22 06:40:50;;;;;;;6.80;2.40;;;7.70;99.90;;;;;;5079039;28;20291;-43
2021/10/22 06:43:20;;;;;;;3.47;1.40;;;7.80;99.90;;;;;;5064154;28;21877;-44
2021/10/22 06:45:46;;;;;;;6.50;1.80;;;7.80;99.90;;;;;;5081004;28;20201;-42
2021/10/22 06:48:13;;;;;;;8.00;1.53;;;7.80;99.90;;;;;;5074613;28;20193;-44
2021/10/22 06:50:39;;;;;;;6.10;1.40;;;7.80;99.90;;;;;;5085862;28;20555;-43
2021/10/22 06:53:07;;;;;;;8.13;1.73;;;7.90;99.90;;;;;;5071650;28;20827;-43
2021/10/22 06:55:34;;;;;;;7.23;1.40;;;7.90;99.90;;;;;;5091674;28;20233;-44
2021/10/22 06:58:01;;;;;;;7.47;1.70;;;8.00;99.90;;;;;;5075993;28;20658;-43
2021/10/22 07:00:29;;;;;;;9.83;1.57;;;8.00;99.90;;;;;;5077767;28;20273;-43
2021/10/22 07:02:57;;;;;;;6.47;2.00;;;8.10;99.90;;;;;;5070872;28;20229;-45
2021/10/22 07:05:36;;;;;;;6.83;1.87;;;8.10;99.90;;;;;;5075391;28;20280;-43
2021/10/22 07:08:04;;;;;;;6.87;2.10;;;8.10;99.90;;;;;;5064377;28;21087;-45
2021/10/22 07:10:32;;;;;;;5.33;1.70;;;8.10;99.90;;;;;;5084263;28;20665;-43
2021/10/22 07:12:59;;;;;;;9.47;2.30;;;8.10;99.90;;;;;;5076851;28;20217;-44
2021/10/22 07:15:28;;;;;;;10.47;2.47;;;8.10;99.90;;;;;;5068046;28;20215;-46
2021/10/22 07:17:56;;;;;;;7.33;1.60;;;8.10;99.90;;;;;;5087060;28;20207;-43
2021/10/22 07:20:23;;;;;;;4.33;1.70;;;8.10;99.90;;;;;;5085124;28;20260;-46
2021/10/22 07:22:50;;;;;;;9.60;1.50;;;8.00;99.90;;;;;;5070052;28;20283;-44
2021/10/22 07:25:19;;;;;;;7.23;2.27;;;8.00;99.90;;;;;;5081150;28;20198;-45
2021/10/22 07:27:46;;;;;;;4.03;1.33;;;8.10;99.90;;;;;;5081801;28;20198;-44
2021/10/22 07:30:13;;;;;;;9.17;2.27;;;8.10;99.90;;;;;;5075516;28;20197;-44
2021/10/22 07:32:40;;;;;;;12.87;2.10;;;8.00;99.90;;;;;;5069576;28;20205;-43
2021/10/22 07:35:09;;;;;;;6.23;1.93;;;8.00;99.90;;;;;;5077929;28;20202;-43
2021/10/22 07:37:36;;;;;;;10.43;2.20;;;8.00;99.90;;;;;;5077243;28;20671;-42
2021/10/22 07:40:04;;;;;;;12.90;3.33;;;8.00;99.90;;;;;;5068492;28;20206;-42
2021/10/22 07:42:31;;;;;;;13.67;2.23;;;8.00;99.90;;;;;;5076391;28;20591;-43
2021/10/22 07:44:59;;;;;;;6.80;1.23;;;8.00;99.90;;;;;;5072859;28;20726;-42
2021/10/22 07:47:28;;;;;;;7.73;2.23;;;8.00;99.90;;;;;;5068211;28;20240;-43
2021/10/22 07:49:55;;;;;;;9.63;1.90;;;8.00;99.90;;;;;;5079624;28;20563;-43
2021/10/22 07:52:26;;;;;;;16.53;2.73;;;8.10;99.90;;;;;;5075984;28;20209;-43
2021/10/22 07:54:54;;;;;;;7.33;1.63;;;8.10;99.90;;;;;;5074838;28;20567;-44
2021/10/22 07:57:23;;;;;;;11.87;3.07;;;8.20;99.90;;;;;;5077271;28;20214;-43
2021/10/22 07:59:50;;;;;;;9.53;2.03;;;8.20;99.90;;;;;;5088622;28;20198;-43
2021/10/22 08:02:17;;;;;;;3.43;1.10;;;8.30;99.90;;;;;;5069265;28;20245;-42
2021/10/22 08:04:44;;;;;;;5.30;1.50;;;8.30;99.90;;;;;;5077960;28;20198;-45
2021/10/22 08:07:11;;;;;;;7.33;2.50;;;8.40;99.90;;;;;;5083290;28;20833;-43
2021/10/22 08:09:40;;;;;;;7.27;1.50;;;8.40;99.90;;;;;;5073925;28;20212;-44
2021/10/22 08:12:07;;;;;;;4.43;1.83;;;8.40;99.90;;;;;;5093916;28;20571;-43
2021/10/22 08:14:34;;;;;;;10.87;2.70;;;8.40;99.90;;;;;;5083253;28;20214;-43
2021/10/22 08:17:01;;;;;;;4.43;1.87;;;8.50;99.90;;;;;;5091001;28;20212;-47
2021/10/22 08:19:28;;;;;;;8.30;2.00;;;8.50;99.90;;;;;;5068618;28;20222;-43
2021/10/22 08:24:39;;;;;;;7.90;2.07;;;8.60;99.90;;;;;;5073623;28;20204;-45
2021/10/22 08:27:06;;;;;;;8.57;1.90;;;8.80;99.90;;;;;;5090312;28;20202;-44
2021/10/22 08:29:33;;;;;;;7.37;1.57;;;8.80;99.90;;;;;;5078755;28;20997;-44
2021/10/22 08:32:00;;;;;;;3.97;1.20;;;8.90;99.90;;;;;;5076394;28;20205;-47
2021/10/22 08:34:28;;;;;;;7.07;2.70;;;8.90;99.90;;;;;;5073051;28;20213;-44
2021/10/22 08:36:55;;;;;;;5.33;1.30;;;8.90;99.90;;;;;;5086193;28;20201;-45
2021/10/22 08:39:21;;;;;;;8.53;1.60;;;8.90;99.90;;;;;;5076507;28;20229;-43
2021/10/22 08:41:53;;;;;;;6.80;2.37;;;8.80;99.90;;;;;;5080660;28;20214;-44
2021/10/22 08:44:21;;;;;;;4.87;1.10;;;8.80;99.90;;;;;;5083345;28;20217;-43
2021/10/22 08:46:49;;;;;;;5.30;1.53;;;8.70;99.90;;;;;;5082114;28;20228;-42
2021/10/22 08:49:16;;;;;;;3.90;1.47;;;8.70;99.90;;;;;;5069817;28;20225;-44
2021/10/22 08:51:43;;;;;;;3.07;1.20;;;8.60;99.90;;;;;;5086439;28;20197;-43
2021/10/22 08:54:12;;;;;;;6.00;1.70;;;8.60;99.90;;;;;;5086472;28;20228;-43
2021/10/22 08:56:40;;;;;;;8.10;1.40;;;8.50;99.90;;;;;;5077863;28;20201;-45
2021/10/22 08:59:08;;;;;;;5.10;1.47;;;8.40;99.90;;;;;;5086152;28;20373;-50
2021/10/22 09:01:35;;;;;;;5.87;2.27;;;8.40;99.90;;;;;;5081168;28;20992;-43
2021/10/22 09:04:02;;;;;;;8.47;1.40;;;8.40;99.90;;;;;;5064594;28;20302;-43
2021/10/22 09:06:29;;;;;;;10.23;1.50;;;8.30;99.90;;;;;;5080858;28;20193;-44
2021/10/22 09:08:57;;;;;;;4.97;1.63;;;8.30;99.90;;;;;;5088812;28;20194;-44
2021/10/22 09:11:27;;;;;;;8.43;2.00;;;8.30;99.90;;;;;;5070386;28;20279;-43
2021/10/22 09:14:06;;;;;;;6.77;1.47;;;8.30;99.90;;;;;;5081464;28;20217;-46
2021/10/22 09:16:41;;;;;;;4.30;1.00;;;8.30;99.90;;;;;;5079529;28;20232;-47
2021/10/22 09:19:08;;;;;;;7.37;1.50;;;8.40;99.90;;;;;;5075397;28;20233;-43
2021/10/22 09:21:34;;;;;;;6.90;1.80;;;8.40;99.90;;;;;;5073837;28;20217;-45
2021/10/22 09:24:15;;;;;;;5.33;1.20;;;8.30;99.90;;;;;;5089244;28;20641;-46
2021/10/22 09:26:47;;;;;;;4.83;1.50;;;8.30;99.90;;;;;;5071124;28;20209;-43
2021/10/22 09:29:18;;;;;;;5.43;1.77;;;8.30;99.90;;;;;;5080244;28;20201;-43
2021/10/22 09:31:48;;;;;;;4.43;1.13;;;8.20;99.90;;;;;;5083988;28;20277;-44
2021/10/22 09:34:30;;;;;;;3.90;0.80;;;8.20;99.90;;;;;;5076023;28;20211;-43
2021/10/22 09:36:57;;;;;;;2.93;1.53;;;8.30;99.90;;;;;;5069299;28;20206;-44
2021/10/22 09:39:24;;;;;;;3.77;1.00;;;8.30;99.90;;;;;;5075112;28;20202;-47
2021/10/22 09:41:52;;;;;;;4.73;1.30;;;8.30;99.90;;;;;;5077031;28;20210;-43
2021/10/22 09:44:21;;;;;;;3.87;1.07;;;8.40;99.90;;;;;;5084706;28;20757;-43
2021/10/22 09:46:50;;;;;;;2.63;1.00;;;8.40;99.90;;;;;;5084712;28;20211;-42
2021/10/22 09:49:25;;;;;;;2.17;0.90;;;8.40;99.90;;;;;;5080135;28;20272;-44
2021/10/22 09:51:54;;;;;;;2.03;0.90;;;8.40;99.90;;;;;;5072709;28;20196;-44
2021/10/22 09:54:21;;;;;;;4.13;0.87;;;8.40;99.90;;;;;;5082686;28;20243;-43
2021/10/22 09:56:53;;;;;;;2.33;0.93;;;8.40;99.90;;;;;;5074106;28;20186;-43
2021/10/22 09:59:24;;;;;;;4.00;0.80;;;8.40;99.90;;;;;;5077355;28;20548;-42
2021/10/22 10:01:54;;;;;;;2.07;0.83;;;8.30;99.90;;;;;;5084589;28;20210;-42
2021/10/22 10:04:23;;;;;;;1.73;0.57;;;8.30;99.90;;;;;;5070899;28;20233;-44
2021/10/22 10:06:50;;;;;;;3.83;0.93;;;8.30;99.90;;;;;;5069954;28;20232;-45
2021/10/22 10:09:19;;;;;;;3.40;0.70;;;8.30;99.90;;;;;;5082111;28;20197;-43
2021/10/22 10:11:46;;;;;;;3.50;1.00;;;8.30;99.90;;;;;;5075948;28;20197;-45
2021/10/22 10:14:14;;;;;;;3.37;0.73;;;8.20;99.90;;;;;;5072062;28;20224;-47
2021/10/22 10:16:42;;;;;;;3.33;0.70;;;8.20;99.90;;;;;;5087998;28;20237;-46
2021/10/22 10:19:13;;;;;;;1.20;0.60;;;8.20;99.90;;;;;;5090532;28;20197;-46
2021/10/22 10:21:44;;;;;;;1.97;0.60;;;8.20;99.90;;;;;;5074752;28;20218;-45
2021/10/22 10:24:12;;;;;;;2.17;0.70;;;8.30;99.90;;;;;;5077202;28;21108;-44
2021/10/22 10:26:40;;;;;;;3.13;1.00;;;8.30;99.90;;;;;;5090715;28;20351;-46
2021/10/22 10:29:11;;;;;;;3.53;0.77;;;8.30;99.90;;;;;;5062866;28;20198;-48
2021/10/22 10:31:41;;;;;;;2.47;0.80;;;8.40;99.90;;;;;;5073469;28;20198;-45
2021/10/22 10:34:41;;;;;;;4.03;1.00;;;8.40;99.90;;;;;;5085498;28;20229;-46
2021/10/22 10:37:33;;;;;;;4.57;0.73;;;8.40;99.90;;;;;;5066268;28;20206;-44
2021/10/22 10:40:13;;;;;;;2.40;0.60;;;8.40;99.90;;;;;;5070312;28;20281;-44
2021/10/22 10:42:45;;;;;;;4.10;1.10;;;8.40;99.90;;;;;;5070543;28;20240;-49
2021/10/22 10:45:40;;;;;;;2.00;0.90;;;8.40;99.90;;;;;;5070866;28;20208;-46
2021/10/22 10:48:08;;;;;;;4.43;1.10;;;8.40;99.90;;;;;;5076890;28;20209;-48
2021/10/22 10:50:48;;;;;;;2.77;0.80;;;8.30;99.90;;;;;;5074785;28;20210;-51
2021/10/22 10:53:18;;;;;;;3.73;0.73;;;8.30;99.90;;;;;;5071674;28;20241;-47
2021/10/22 10:55:47;;;;;;;4.07;0.67;;;8.40;99.90;;;;;;5082040;28;20197;-45
2021/10/22 10:58:16;;;;;;;3.00;0.70;;;8.40;99.90;;;;;;5079470;28;20209;-46
2021/10/22 11:00:46;;;;;;;3.63;1.00;;;8.40;99.90;;;;;;5079202;28;20209;-49
2021/10/22 11:03:19;;;;;;;4.37;0.87;;;8.40;99.90;;;;;;5086043;28;20229;-45
2021/10/22 11:06:32;;;;;;;3.80;0.80;;;8.50;99.90;;;;;;5083151;28;20213;-44
2021/10/22 11:08:59;;;;;;;2.17;0.47;;;8.50;99.90;;;;;;5067635;28;20202;-47
2021/10/22 11:11:28;;;;;;;2.93;1.10;;;8.50;99.90;;;;;;5075518;28;20937;-47
2021/10/22 11:13:58;;;;;;;4.40;0.60;;;8.50;99.90;;;;;;5073409;28;20214;-43
2021/10/22 11:16:32;;;;;;;4.97;0.60;;;8.60;99.90;;;;;;5074157;28;20329;-48
2021/10/22 11:19:00;;;;;;;2.63;0.53;;;8.60;99.90;;;;;;5080106;28;20620;-47
2021/10/22 11:21:30;;;;;;;0.93;0.53;;;8.60;99.90;;;;;;5079158;28;20194;-48
2021/10/22 11:23:58;;;;;;;5.60;1.03;;;8.60;99.90;;;;;;5064261;28;20237;-47
2021/10/22 11:26:25;;;;;;;2.80;0.70;;;8.70;99.90;;;;;;5077847;28;20884;-46
2021/10/22 11:28:53;;;;;;;1.53;0.60;;;8.70;99.90;;;;;;5084430;28;20194;-45
2021/10/22 11:31:39;;;;;;;1.40;0.73;;;8.80;99.90;;;;;;5071864;28;20670;-47
2021/10/22 11:34:07;;;;;;;2.20;0.60;;;8.80;99.90;;;;;;5081505;28;20222;-45
2021/10/22 11:36:36;;;;;;;1.97;0.87;;;8.80;99.90;;;;;;5084494;28;20194;-48
2021/10/22 11:39:03;;;;;;;3.27;0.90;;;8.80;99.90;;;;;;5073187;28;20202;-46
2021/10/22 11:41:30;;;;;;;3.73;0.80;;;8.80;99.90;;;;;;5088582;28;20912;-46
2021/10/22 11:44:08;;;;;;;3.43;0.80;;;8.80;99.90;;;;;;5086783;28;20241;-44
2021/10/22 11:46:43;;;;;;;1.67;0.67;;;8.70;99.90;;;;;;5084352;28;20273;-45
2021/10/22 11:49:11;;;;;;;4.20;0.70;;;8.60;99.90;;;;;;5083796;28;20197;-44
2021/10/22 11:51:39;;;;;;;5.40;0.40;;;8.50;99.90;;;;;;5084608;28;20198;-45
2021/10/22 11:54:06;;;;;;;4.10;0.63;;;8.30;99.90;;;;;;5077411;28;20223;-47
2021/10/22 11:56:36;;;;;;;1.07;0.30;;;8.20;99.90;;;;;;5092984;28;20189;-44
2021/10/22 11:59:03;;;;;;;3.17;0.50;;;8.10;99.90;;;;;;5077503;28;20256;-45
2021/10/22 12:01:29;;;;;;;2.13;0.37;;;8.10;99.90;;;;;;5073322;28;20236;-45
2021/10/22 12:03:56;;;;;;;1.43;0.70;;;8.00;99.90;;;;;;5066657;28;20804;-46
2021/10/22 12:06:25;;;;;;;3.10;0.60;;;8.00;99.90;;;;;;5092503;28;20197;-45
2021/10/22 12:08:54;;;;;;;2.03;0.50;;;7.90;99.90;;;;;;5071494;28;20269;-47
2021/10/22 12:11:23;;;;;;;1.13;0.40;;;7.80;99.90;;;;;;5085941;28;20202;-47
2021/10/22 12:13:50;;;;;;;0.50;0.40;;;7.70;99.90;;;;;;5079326;28;20217;-47
2021/10/22 12:16:20;;;;;;;1.53;0.73;;;7.60;99.90;;;;;;5087703;28;20567;-46
2021/10/22 12:18:50;;;;;;;1.80;0.67;;;7.60;99.90;;;;;;5077671;28;20202;-46
2021/10/22 12:21:17;;;;;;;0.87;0.50;;;7.50;99.90;;;;;;5084732;28;20209;-44
2021/10/22 12:23:44;;;;;;;3.10;0.80;;;7.50;99.90;;;;;;5085813;28;20230;-45
2021/10/22 12:26:22;;;;;;;7.00;0.50;;;7.40;99.90;;;;;;5062047;28;20207;-46
2021/10/22 12:29:00;;;;;;;3.23;0.37;;;7.40;99.90;;;;;;5086882;28;20666;-45
2021/10/22 12:31:34;;;;;;;6.77;1.03;;;7.50;99.90;;;;;;5061588;28;20206;-45
2021/10/22 12:34:08;;;;;;;1.57;0.57;;;7.50;99.90;;;;;;5079017;28;20221;-46
2021/10/22 12:36:35;;;;;;;4.20;0.60;;;7.50;99.90;;;;;;5079099;28;20208;-49
2021/10/22 12:39:01;;;;;;;6.83;0.67;;;7.50;99.90;;;;;;5090320;28;20197;-49
2021/10/22 12:41:30;;;;;;;3.30;0.50;;;7.50;99.90;;;;;;5072353;28;20248;-45
2021/10/22 12:44:11;;;;;;;2.23;0.77;;;7.60;99.90;;;;;;5084532;28;20624;-49
2021/10/22 12:46:51;;;;;;;5.10;0.67;;;7.60;99.90;;;;;;5077756;28;20275;-44
2021/10/22 12:49:23;;;;;;;2.53;0.73;;;7.70;99.90;;;;;;5073884;28;20202;-46
2021/10/22 12:51:55;;;;;;;3.10;0.60;;;7.70;99.90;;;;;;5078355;28;20209;-49
2021/10/22 12:54:23;;;;;;;3.63;0.80;;;7.70;99.90;;;;;;5079101;28;20232;-48
2021/10/22 12:56:56;;;;;;;1.90;0.70;;;7.80;99.90;;;;;;5062206;28;20218;-47
2021/10/22 12:59:23;;;;;;;3.43;0.40;;;7.80;99.90;;;;;;5081670;28;20217;-47
2021/10/22 13:01:50;;;;;;;1.90;0.40;;;7.90;99.90;;;;;;5089228;28;20190;-48
2021/10/22 13:04:21;;;;;;;4.03;0.40;;;7.90;99.90;;;;;;5063975;28;20222;-46
2021/10/22 13:06:54;;;;;;;2.90;0.60;;;8.00;99.90;;;;;;5088909;28;20240;-45
2021/10/22 13:09:40;;;;;;;1.03;0.60;;;8.00;99.90;;;;;;5084703;28;20205;-45
2021/10/22 13:15:29;;;;;;;5.33;0.80;;;8.00;99.90;;;;;;5081971;28;20536;-47